createdAt,value
2017-02-23T00:00:12.670Z,0
2017-02-23T00:01:22.574Z,0
2017-02-23T00:02:32.845Z,0
2017-02-23T00:03:42.720Z,0
2017-02-23T00:04:53.396Z,0
2017-02-23T00:06:03.375Z,0
2017-02-23T00:07:14.033Z,0
2017-02-23T00:08:24.751Z,0
2017-02-23T00:09:34.631Z,0
2017-02-23T00:10:45.313Z,0
2017-02-23T00:11:56.083Z,0
2017-02-23T00:13:06.737Z,0
2017-02-23T00:14:16.654Z,0
2017-02-23T00:15:27.331Z,0
2017-02-23T00:16:37.509Z,0
2017-02-23T00:17:47.900Z,0
2017-02-23T00:18:58.167Z,0
2017-02-23T00:20:08.445Z,0
2017-02-23T00:21:18.332Z,0
2017-02-23T00:22:28.612Z,0
2017-02-23T00:23:38.979Z,0
2017-02-23T00:24:49.278Z,0
2017-02-23T00:25:59.942Z,0
2017-02-23T00:27:09.497Z,0
2017-02-23T00:28:19.446Z,0
2017-02-23T00:29:29.825Z,0
2017-02-23T00:30:40.478Z,0
2017-02-23T00:31:51.156Z,0
2017-02-23T00:33:01.424Z,0
2017-02-23T00:34:11.298Z,0
2017-02-23T00:35:21.106Z,0
2017-02-23T00:36:31.772Z,0
2017-02-23T00:37:42.453Z,0
2017-02-23T00:38:52.759Z,0
2017-02-23T00:40:03.025Z,0
2017-02-23T00:41:12.625Z,0
2017-02-23T00:42:23.272Z,0
2017-02-23T00:43:33.927Z,0
2017-02-23T00:44:44.573Z,0
2017-02-23T00:45:55.265Z,0
2017-02-23T00:47:04.848Z,0
2017-02-23T00:48:14.327Z,0
2017-02-23T00:49:24.977Z,0
2017-02-23T00:50:35.251Z,0
2017-02-23T00:51:45.899Z,0
2017-02-23T00:52:56.299Z,0
2017-02-23T00:54:06.203Z,0
2017-02-23T00:55:15.699Z,0
2017-02-23T00:56:26.365Z,0
2017-02-23T00:57:37.060Z,0
2017-02-23T00:58:47.838Z,0
2017-02-23T00:59:58.122Z,0
2017-02-23T01:01:08.393Z,0
2017-02-23T01:02:19.051Z,0
2017-02-23T01:03:28.543Z,0
2017-02-23T01:04:38.548Z,0
2017-02-23T01:05:49.234Z,0
2017-02-23T01:06:59.498Z,0
2017-02-23T01:08:10.159Z,0
2017-02-23T01:09:20.443Z,0
2017-02-23T01:10:31.078Z,0
2017-02-23T01:11:41.344Z,0
2017-02-23T01:12:51.233Z,0
2017-02-23T01:14:01.529Z,0
2017-02-23T01:15:11.443Z,0
2017-02-23T01:16:21.831Z,0
2017-02-23T01:17:32.529Z,0
2017-02-23T01:18:42.418Z,0
2017-02-23T01:19:52.686Z,0
2017-02-23T01:21:02.972Z,0
2017-02-23T01:22:13.347Z,0
2017-02-23T01:23:24.006Z,0
2017-02-23T01:24:34.292Z,0
2017-02-23T01:25:44.977Z,0
2017-02-23T01:26:55.266Z,0
2017-02-23T01:28:06.093Z,0
2017-02-23T01:29:16.751Z,0
2017-02-23T01:30:26.645Z,0
2017-02-23T01:31:37.315Z,0
2017-02-23T01:32:47.584Z,0
2017-02-23T01:33:58.001Z,0
2017-02-23T01:35:08.285Z,0
2017-02-23T01:36:18.583Z,0
2017-02-23T01:37:29.253Z,0
2017-02-23T01:38:39.910Z,0
2017-02-23T01:39:50.279Z,0
2017-02-23T01:41:00.544Z,0
2017-02-23T01:42:10.062Z,0
2017-02-23T01:43:20.325Z,0
2017-02-23T01:44:30.591Z,0
2017-02-23T01:45:41.378Z,0
2017-02-23T01:46:52.029Z,0
2017-02-23T01:48:02.678Z,0
2017-02-23T01:49:12.930Z,0
2017-02-23T01:50:23.596Z,0
2017-02-23T01:51:34.511Z,0
2017-02-23T01:52:45.185Z,0
2017-02-23T01:53:55.481Z,0
2017-02-23T01:55:06.137Z,0
2017-02-23T01:56:16.017Z,0
2017-02-23T01:57:26.807Z,0
2017-02-23T01:58:36.715Z,0
2017-02-23T01:59:46.984Z,0
2017-02-23T02:00:57.280Z,0
2017-02-23T02:02:07.203Z,0
2017-02-23T02:03:17.628Z,0
2017-02-23T02:04:28.296Z,0
2017-02-23T02:05:38.985Z,0
2017-02-23T02:06:49.659Z,0
2017-02-23T02:07:59.938Z,0
2017-02-23T02:09:11.030Z,0
2017-02-23T02:10:21.316Z,0
2017-02-23T02:11:31.590Z,0
2017-02-23T02:12:42.242Z,0
2017-02-23T02:13:52.179Z,0
2017-02-23T02:15:02.941Z,0
2017-02-23T02:16:13.214Z,0
2017-02-23T02:17:23.867Z,0
2017-02-23T02:18:34.535Z,0
2017-02-23T02:19:44.815Z,0
2017-02-23T02:20:55.178Z,0
2017-02-23T02:22:05.852Z,0
2017-02-23T02:23:15.324Z,0
2017-02-23T02:24:25.600Z,0
2017-02-23T02:25:35.882Z,0
2017-02-23T02:26:46.279Z,0
2017-02-23T02:27:56.561Z,0
2017-02-23T02:29:07.221Z,0
2017-02-23T02:30:17.518Z,0
2017-02-23T02:31:28.213Z,0
2017-02-23T02:32:38.654Z,0
2017-02-23T02:33:49.317Z,0
2017-02-23T02:34:59.207Z,0
2017-02-23T02:36:09.112Z,0
2017-02-23T02:37:18.608Z,0
2017-02-23T02:38:29.380Z,0
2017-02-23T02:39:38.876Z,0
2017-02-23T02:40:49.152Z,0
2017-02-23T02:41:59.819Z,0
2017-02-23T02:43:10.776Z,0
2017-02-23T02:44:20.804Z,0
2017-02-23T02:45:31.182Z,0
2017-02-23T02:46:41.473Z,0
2017-02-23T02:47:51.070Z,0
2017-02-23T02:49:01.338Z,0
2017-02-23T02:50:10.938Z,0
2017-02-23T02:51:21.594Z,0
2017-02-23T02:52:31.851Z,0
2017-02-23T02:53:42.542Z,0
2017-02-23T02:54:52.428Z,0
2017-02-23T02:56:02.807Z,0
2017-02-23T02:57:13.466Z,0
2017-02-23T02:58:24.142Z,0
2017-02-23T02:59:34.041Z,0
2017-02-23T03:00:43.933Z,0
2017-02-23T03:01:54.712Z,0
2017-02-23T03:03:05.380Z,0
2017-02-23T03:04:16.062Z,0
2017-02-23T03:05:26.335Z,0
2017-02-23T03:06:37.003Z,0
2017-02-23T03:07:47.951Z,0
2017-02-23T03:08:57.889Z,0
2017-02-23T03:10:08.164Z,0
2017-02-23T03:11:18.440Z,0
2017-02-23T03:12:29.101Z,0
2017-02-23T03:13:39.879Z,0
2017-02-23T03:14:50.556Z,0
2017-02-23T03:16:01.250Z,0
2017-02-23T03:17:11.925Z,0
2017-02-23T03:18:22.624Z,0
2017-02-23T03:19:33.401Z,0
2017-02-23T03:20:44.061Z,0
2017-02-23T03:21:53.949Z,0
2017-02-23T03:23:04.625Z,0
2017-02-23T03:24:15.274Z,0
2017-02-23T03:25:26.073Z,0
2017-02-23T03:26:35.949Z,0
2017-02-23T03:27:46.624Z,0
2017-02-23T03:28:56.530Z,0
2017-02-23T03:30:06.795Z,0
2017-02-23T03:31:16.776Z,0
2017-02-23T03:32:27.479Z,0
2017-02-23T03:33:37.348Z,0
2017-02-23T03:34:48.005Z,0
2017-02-23T03:35:58.679Z,0
2017-02-23T03:37:09.468Z,0
2017-02-23T03:38:19.743Z,0
2017-02-23T03:39:29.616Z,0
2017-02-23T03:40:39.908Z,0
2017-02-23T03:41:50.552Z,0
2017-02-23T03:43:00.198Z,0
2017-02-23T03:44:10.872Z,0
2017-02-23T03:45:21.539Z,0
2017-02-23T03:46:31.798Z,0
2017-02-23T03:47:42.065Z,0
2017-02-23T03:48:52.437Z,0
2017-02-23T03:50:03.117Z,0
2017-02-23T03:51:12.603Z,0
2017-02-23T03:52:22.878Z,0
2017-02-23T03:53:33.575Z,0
2017-02-23T03:54:43.953Z,0
2017-02-23T03:55:54.248Z,0
2017-02-23T03:57:04.925Z,0
2017-02-23T03:58:15.189Z,0
2017-02-23T03:59:25.094Z,0
2017-02-23T04:00:35.153Z,0
2017-02-23T04:01:45.831Z,0
2017-02-23T04:02:56.495Z,0
2017-02-23T04:04:07.088Z,0
2017-02-23T04:05:17.748Z,0
2017-02-23T04:06:27.746Z,0
2017-02-23T04:07:38.026Z,0
2017-02-23T04:08:48.318Z,0
2017-02-23T04:09:58.995Z,0
2017-02-23T04:11:09.668Z,0
2017-02-23T04:12:19.697Z,0
2017-02-23T04:13:30.372Z,0
2017-02-23T04:14:41.055Z,0
2017-02-23T04:15:50.952Z,0
2017-02-23T04:17:01.659Z,0
2017-02-23T04:18:12.030Z,0
2017-02-23T04:19:21.938Z,0
2017-02-23T04:20:32.630Z,0
2017-02-23T04:21:42.509Z,0
2017-02-23T04:22:53.183Z,0
2017-02-23T04:24:03.947Z,0
2017-02-23T04:25:14.277Z,0
2017-02-23T04:26:24.930Z,0
2017-02-23T04:27:34.822Z,0
2017-02-23T04:28:45.112Z,0
2017-02-23T04:29:56.079Z,0
2017-02-23T04:31:06.736Z,0
2017-02-23T04:32:17.060Z,0
2017-02-23T04:33:27.339Z,0
2017-02-23T04:34:38.022Z,0
2017-02-23T04:35:48.455Z,0
2017-02-23T04:36:58.733Z,0
2017-02-23T04:38:08.603Z,0
2017-02-23T04:39:18.904Z,0
2017-02-23T04:40:29.581Z,0
2017-02-23T04:41:39.955Z,0
2017-02-23T04:42:50.645Z,0
2017-02-23T04:44:01.314Z,0
2017-02-23T04:45:11.583Z,0
2017-02-23T04:46:21.456Z,0
2017-02-23T04:47:31.816Z,0
2017-02-23T04:48:42.094Z,0
2017-02-23T04:49:52.749Z,0
2017-02-23T04:51:03.020Z,0
2017-02-23T04:52:12.914Z,0
2017-02-23T04:53:23.677Z,0
2017-02-23T04:54:33.985Z,0
2017-02-23T04:55:44.253Z,0
2017-02-23T04:56:54.534Z,0
2017-02-23T04:58:04.833Z,0
2017-02-23T04:59:15.587Z,0
2017-02-23T05:00:26.261Z,0
2017-02-23T05:01:36.969Z,0
2017-02-23T05:02:47.690Z,0
2017-02-23T05:03:57.595Z,0
2017-02-23T05:05:07.982Z,0
2017-02-23T05:06:18.641Z,0
2017-02-23T05:07:29.309Z,0
2017-02-23T05:08:39.630Z,0
2017-02-23T05:09:49.513Z,0
2017-02-23T05:10:59.879Z,0
2017-02-23T05:12:10.540Z,0
2017-02-23T05:13:20.824Z,0
2017-02-23T05:14:31.110Z,0
2017-02-23T05:15:41.400Z,0
2017-02-23T05:16:52.162Z,0
2017-02-23T05:18:02.815Z,0
2017-02-23T05:19:12.690Z,0
2017-02-23T05:20:22.955Z,0
2017-02-23T05:21:33.226Z,0
2017-02-23T05:22:43.608Z,0
2017-02-23T05:23:53.488Z,0
2017-02-23T05:25:04.169Z,0
2017-02-23T05:26:14.825Z,0
2017-02-23T05:27:25.538Z,0
2017-02-23T05:28:36.299Z,0
2017-02-23T05:29:46.177Z,0
2017-02-23T05:30:56.833Z,0
2017-02-23T05:32:07.118Z,0
2017-02-23T05:33:16.997Z,0
2017-02-23T05:34:27.782Z,0
2017-02-23T05:35:38.068Z,0
2017-02-23T05:36:48.350Z,0
2017-02-23T05:37:59.009Z,0
2017-02-23T05:39:09.692Z,0
2017-02-23T05:40:20.467Z,0
2017-02-23T05:41:30.341Z,0
2017-02-23T05:42:41.003Z,0
2017-02-23T05:43:50.893Z,0
2017-02-23T05:45:01.166Z,0
2017-02-23T05:46:11.943Z,0
2017-02-23T05:47:21.826Z,0
2017-02-23T05:48:32.483Z,0
2017-02-23T05:49:42.786Z,0
2017-02-23T05:50:53.055Z,0
2017-02-23T05:52:03.811Z,0
2017-02-23T05:53:14.076Z,0
2017-02-23T05:54:24.719Z,0
2017-02-23T05:55:35.007Z,0
2017-02-23T05:56:45.299Z,0
2017-02-23T05:57:55.690Z,0
2017-02-23T05:59:05.564Z,0
2017-02-23T06:00:15.876Z,0
2017-02-23T06:01:25.767Z,0
2017-02-23T06:02:36.457Z,0
2017-02-23T06:03:47.351Z,0
2017-02-23T06:04:57.650Z,0
2017-02-23T06:06:08.356Z,0
2017-02-23T06:07:18.621Z,0
2017-02-23T06:08:29.296Z,0
2017-02-23T06:09:40.117Z,0
2017-02-23T06:10:50.004Z,0
2017-02-23T06:11:59.915Z,0
2017-02-23T06:13:10.619Z,0
2017-02-23T06:14:20.888Z,0
2017-02-23T06:15:31.711Z,0
2017-02-23T06:16:42.380Z,0
2017-02-23T06:17:53.030Z,0
2017-02-23T06:19:03.291Z,0
2017-02-23T06:20:13.593Z,4
2017-02-23T06:21:24.361Z,4
2017-02-23T06:22:34.660Z,4
2017-02-23T06:23:45.319Z,4
2017-02-23T06:24:55.642Z,4
2017-02-23T06:26:06.333Z,4
2017-02-23T06:27:16.705Z,4
2017-02-23T06:28:26.987Z,4
2017-02-23T06:29:37.257Z,4
2017-02-23T06:30:47.219Z,4
2017-02-23T06:31:57.489Z,4
2017-02-23T06:33:08.255Z,8
2017-02-23T06:34:18.528Z,8
2017-02-23T06:35:28.842Z,8
2017-02-23T06:36:39.518Z,4
2017-02-23T06:37:49.787Z,8
2017-02-23T06:38:59.383Z,8
2017-02-23T06:40:10.034Z,12
2017-02-23T06:41:20.350Z,12
2017-02-23T06:42:31.014Z,8
2017-02-23T06:43:40.496Z,12
2017-02-23T06:44:50.481Z,12
2017-02-23T06:46:00.781Z,12
2017-02-23T06:47:11.498Z,12
2017-02-23T06:48:21.828Z,12
2017-02-23T06:49:32.131Z,16
2017-02-23T06:50:42.895Z,16
2017-02-23T06:51:53.162Z,20
2017-02-23T06:53:03.427Z,24
2017-02-23T06:54:14.102Z,20
2017-02-23T06:55:23.985Z,28
2017-02-23T06:56:33.592Z,32
2017-02-23T06:57:43.479Z,36
2017-02-23T06:58:53.769Z,32
2017-02-23T07:00:04.030Z,48
2017-02-23T07:01:14.699Z,48
2017-02-23T07:02:25.459Z,64
2017-02-23T07:03:35.757Z,68
2017-02-23T07:04:46.429Z,68
2017-02-23T07:05:55.919Z,68
2017-02-23T07:07:05.823Z,72
2017-02-23T07:08:16.597Z,68
2017-02-23T07:09:26.857Z,64
2017-02-23T07:10:36.763Z,68
2017-02-23T07:11:46.638Z,60
2017-02-23T07:12:56.912Z,64
2017-02-23T07:14:07.666Z,64
2017-02-23T07:15:17.164Z,60
2017-02-23T07:16:27.093Z,56
2017-02-23T07:17:36.990Z,56
2017-02-23T07:18:47.661Z,64
2017-02-23T07:19:58.051Z,72
2017-02-23T07:21:08.372Z,84
2017-02-23T07:22:18.265Z,80
2017-02-23T07:23:28.549Z,84
2017-02-23T07:24:38.855Z,80
2017-02-23T07:25:49.628Z,72
2017-02-23T07:26:59.522Z,76
2017-02-23T07:28:09.418Z,84
2017-02-23T07:29:19.702Z,72
2017-02-23T07:30:29.588Z,72
2017-02-23T07:31:40.585Z,68
2017-02-23T07:32:51.082Z,64
2017-02-23T07:34:01.717Z,72
2017-02-23T07:35:12.378Z,68
2017-02-23T07:36:21.473Z,68
2017-02-23T07:37:31.845Z,68
2017-02-23T07:38:42.542Z,68
2017-02-23T07:39:52.430Z,80
2017-02-23T07:41:02.702Z,76
2017-02-23T07:42:12.980Z,72
2017-02-23T07:43:23.424Z,72
2017-02-23T07:44:33.690Z,76
2017-02-23T07:45:43.583Z,68
2017-02-23T07:46:53.854Z,60
2017-02-23T07:48:04.508Z,64
2017-02-23T07:49:14.876Z,76
2017-02-23T07:50:24.750Z,80
2017-02-23T07:51:35.412Z,76
2017-02-23T07:52:45.711Z,80
2017-02-23T07:53:55.250Z,80
2017-02-23T07:55:06.019Z,80
2017-02-23T07:56:16.295Z,76
2017-02-23T07:57:26.569Z,80
2017-02-23T07:58:37.236Z,96
2017-02-23T07:59:47.893Z,108
2017-02-23T08:00:57.936Z,80
2017-02-23T08:02:08.589Z,80
2017-02-23T08:03:18.091Z,68
2017-02-23T08:04:28.389Z,72
2017-02-23T08:05:38.265Z,72
2017-02-23T08:06:48.241Z,84
2017-02-23T08:07:58.121Z,84
2017-02-23T08:09:08.617Z,104
2017-02-23T08:10:19.470Z,108
2017-02-23T08:11:29.748Z,92
2017-02-23T08:12:40.533Z,104
2017-02-23T08:13:50.802Z,100
2017-02-23T08:15:01.481Z,108
2017-02-23T08:16:11.380Z,96
2017-02-23T08:17:21.276Z,92
2017-02-23T08:18:31.845Z,96
2017-02-23T08:19:41.752Z,100
2017-02-23T08:20:52.035Z,92
2017-02-23T08:22:02.720Z,100
2017-02-23T08:23:13.019Z,108
2017-02-23T08:24:23.787Z,120
2017-02-23T08:25:34.457Z,108
2017-02-23T08:26:45.179Z,108
2017-02-23T08:27:55.463Z,116
2017-02-23T08:29:06.159Z,116
2017-02-23T08:30:16.151Z,128
2017-02-23T08:31:26.034Z,132
2017-02-23T08:32:35.915Z,140
2017-02-23T08:33:46.237Z,132
2017-02-23T08:34:56.541Z,116
2017-02-23T08:36:06.527Z,132
2017-02-23T08:37:16.072Z,132
2017-02-23T08:38:26.378Z,128
2017-02-23T08:39:36.311Z,112
2017-02-23T08:40:46.631Z,124
2017-02-23T08:41:57.042Z,120
2017-02-23T08:43:07.345Z,116
2017-02-23T08:44:17.630Z,116
2017-02-23T08:45:28.339Z,116
2017-02-23T08:46:38.625Z,112
2017-02-23T08:47:48.292Z,136
2017-02-23T08:48:58.972Z,152
2017-02-23T08:50:09.644Z,160
2017-02-23T08:51:19.851Z,156
2017-02-23T08:52:30.144Z,168
2017-02-23T08:53:39.751Z,156
2017-02-23T08:54:49.641Z,144
2017-02-23T08:56:00.314Z,156
2017-02-23T08:57:11.005Z,156
2017-02-23T08:58:21.264Z,188
2017-02-23T08:59:31.802Z,200
2017-02-23T09:00:42.473Z,180
2017-02-23T09:01:51.974Z,208
2017-02-23T09:03:01.883Z,212
2017-02-23T09:04:12.144Z,240
2017-02-23T09:05:22.635Z,264
2017-02-23T09:06:32.990Z,260
2017-02-23T09:07:43.283Z,264
2017-02-23T09:08:53.566Z,284
2017-02-23T09:10:04.264Z,304
2017-02-23T09:11:14.700Z,276
2017-02-23T09:12:24.990Z,304
2017-02-23T09:13:34.908Z,260
2017-02-23T09:14:45.597Z,260
2017-02-23T09:15:55.898Z,244
2017-02-23T09:17:06.655Z,260
2017-02-23T09:18:16.916Z,280
2017-02-23T09:19:27.589Z,252
2017-02-23T09:20:37.893Z,252
2017-02-23T09:21:47.791Z,240
2017-02-23T09:22:58.224Z,256
2017-02-23T09:24:08.513Z,228
2017-02-23T09:25:18.779Z,228
2017-02-23T09:26:29.093Z,280
2017-02-23T09:27:39.767Z,336
2017-02-23T09:28:50.593Z,312
2017-02-23T09:30:00.879Z,328
2017-02-23T09:31:10.762Z,332
2017-02-23T09:32:21.047Z,336
2017-02-23T09:33:30.959Z,336
2017-02-23T09:34:41.027Z,396
2017-02-23T09:35:50.931Z,328
2017-02-23T09:37:01.249Z,284
2017-02-23T09:38:11.931Z,284
2017-02-23T09:39:22.621Z,316
2017-02-23T09:40:33.455Z,292
2017-02-23T09:41:44.236Z,284
2017-02-23T09:42:54.532Z,288
2017-02-23T09:44:05.271Z,328
2017-02-23T09:45:15.969Z,336
2017-02-23T09:46:25.609Z,300
2017-02-23T09:47:35.903Z,276
2017-02-23T09:48:46.566Z,276
2017-02-23T09:49:57.260Z,224
2017-02-23T09:51:07.156Z,212
2017-02-23T09:52:17.986Z,216
2017-02-23T09:53:28.672Z,232
2017-02-23T09:54:39.359Z,256
2017-02-23T09:55:49.645Z,256
2017-02-23T09:56:59.925Z,232
2017-02-23T09:58:10.779Z,208
2017-02-23T09:59:21.456Z,216
2017-02-23T10:00:31.763Z,216
2017-02-23T10:01:42.073Z,224
2017-02-23T10:02:52.371Z,228
2017-02-23T10:04:03.208Z,260
2017-02-23T10:05:13.131Z,276
2017-02-23T10:06:23.444Z,252
2017-02-23T10:07:33.730Z,260
2017-02-23T10:08:43.613Z,272
2017-02-23T10:09:54.461Z,276
2017-02-23T10:11:04.343Z,276
2017-02-23T10:12:14.235Z,240
2017-02-23T10:13:24.933Z,252
2017-02-23T10:14:35.207Z,232
2017-02-23T10:16:53.201Z,244
2017-02-23T10:18:03.890Z,268
2017-02-23T10:19:14.573Z,268
2017-02-23T10:20:24.851Z,272
2017-02-23T10:21:35.534Z,268
2017-02-23T10:22:45.538Z,312
2017-02-23T10:23:55.854Z,352
2017-02-23T10:25:05.752Z,364
2017-02-23T10:26:16.059Z,396
2017-02-23T10:27:26.752Z,340
2017-02-23T10:28:37.509Z,328
2017-02-23T10:29:48.642Z,396
2017-02-23T10:30:59.319Z,444
2017-02-23T10:32:10.026Z,448
2017-02-23T10:33:20.703Z,496
2017-02-23T10:34:31.502Z,520
2017-02-23T10:35:41.423Z,496
2017-02-23T10:36:52.114Z,492
2017-02-23T10:38:01.628Z,456
2017-02-23T10:39:12.362Z,416
2017-02-23T10:40:22.735Z,468
2017-02-23T10:41:32.664Z,452
2017-02-23T10:42:43.346Z,424
2017-02-23T10:43:54.044Z,428
2017-02-23T10:45:04.729Z,528
2017-02-23T10:46:14.760Z,588
2017-02-23T10:47:25.456Z,676
2017-02-23T10:48:35.740Z,712
2017-02-23T10:49:46.415Z,636
2017-02-23T10:50:57.087Z,748
2017-02-23T10:52:07.103Z,816
2017-02-23T10:53:17.374Z,804
2017-02-23T10:54:28.084Z,668
2017-02-23T10:55:38.382Z,648
2017-02-23T10:56:49.052Z,604
2017-02-23T10:57:59.422Z,644
2017-02-23T10:59:09.332Z,560
2017-02-23T11:00:19.232Z,512
2017-02-23T11:01:29.518Z,452
2017-02-23T11:02:40.183Z,484
2017-02-23T11:03:50.183Z,444
2017-02-23T11:05:00.080Z,516
2017-02-23T11:06:10.370Z,512
2017-02-23T11:07:20.252Z,512
2017-02-23T11:08:30.554Z,460
2017-02-23T11:09:40.964Z,496
2017-02-23T11:10:50.869Z,472
2017-02-23T11:12:01.067Z,548
2017-02-23T11:13:11.790Z,636
2017-02-23T11:14:21.702Z,744
2017-02-23T11:15:32.068Z,816
2017-02-23T11:16:42.751Z,840
2017-02-23T11:17:52.661Z,788
2017-02-23T11:19:02.581Z,1020
2017-02-23T11:20:13.285Z,1204
2017-02-23T11:21:22.904Z,1140
2017-02-23T11:22:33.631Z,1056
2017-02-23T11:23:44.331Z,896
2017-02-23T11:24:54.993Z,880
2017-02-23T11:26:05.314Z,900
2017-02-23T11:27:16.109Z,728
2017-02-23T11:28:26.411Z,804
2017-02-23T11:29:36.725Z,644
2017-02-23T11:30:47.411Z,712
2017-02-23T11:31:57.307Z,732
2017-02-23T11:33:07.759Z,744
2017-02-23T11:34:17.957Z,720
2017-02-23T11:35:28.259Z,736
2017-02-23T11:36:38.547Z,644
2017-02-23T11:37:48.442Z,692
2017-02-23T11:38:59.044Z,608
2017-02-23T11:40:09.331Z,640
2017-02-23T11:41:19.619Z,596
2017-02-23T11:42:29.542Z,592
2017-02-23T11:43:39.848Z,716
2017-02-23T11:44:50.326Z,712
2017-02-23T11:46:00.304Z,648
2017-02-23T11:47:11.018Z,664
2017-02-23T11:48:21.297Z,560
2017-02-23T11:49:31.995Z,628
2017-02-23T11:50:42.015Z,616
2017-02-23T11:51:51.902Z,520
2017-02-23T11:53:01.801Z,604
2017-02-23T11:54:12.082Z,708
2017-02-23T11:55:22.782Z,808
2017-02-23T11:56:33.567Z,780
2017-02-23T11:57:43.903Z,604
2017-02-23T11:58:54.608Z,424
2017-02-23T12:00:04.912Z,628
2017-02-23T12:01:14.807Z,624
2017-02-23T12:02:25.596Z,620
2017-02-23T12:03:36.285Z,692
2017-02-23T12:04:45.812Z,548
2017-02-23T12:05:56.494Z,544
2017-02-23T12:07:07.158Z,564
2017-02-23T12:08:18.000Z,632
2017-02-23T12:09:28.678Z,724
2017-02-23T12:10:38.186Z,512
2017-02-23T12:11:48.871Z,552
2017-02-23T12:12:58.783Z,588
2017-02-23T12:14:09.560Z,644
2017-02-23T12:15:20.228Z,464
2017-02-23T12:16:30.139Z,436
2017-02-23T12:17:40.434Z,364
2017-02-23T12:18:49.922Z,488
2017-02-23T12:20:00.333Z,492
2017-02-23T12:21:10.648Z,496
2017-02-23T12:22:21.328Z,692
2017-02-23T12:23:31.638Z,804
2017-02-23T12:24:41.569Z,656
2017-02-23T12:25:52.352Z,844
2017-02-23T12:27:02.635Z,892
2017-02-23T12:28:12.511Z,924
2017-02-23T12:29:22.817Z,1072
2017-02-23T12:30:33.108Z,968
2017-02-23T12:31:43.894Z,776
2017-02-23T12:32:53.807Z,868
2017-02-23T12:34:04.512Z,884
2017-02-23T12:35:14.814Z,660
2017-02-23T12:36:24.721Z,704
2017-02-23T12:37:35.122Z,672
2017-02-23T12:38:45.808Z,628
2017-02-23T12:39:56.494Z,484
2017-02-23T12:41:06.807Z,556
2017-02-23T12:42:17.117Z,576
2017-02-23T12:43:27.139Z,676
2017-02-23T12:44:37.448Z,972
2017-02-23T12:45:48.108Z,1088
2017-02-23T12:46:58.388Z,740
2017-02-23T12:48:08.317Z,684
2017-02-23T12:49:18.743Z,840
2017-02-23T12:50:29.028Z,728
2017-02-23T12:51:39.344Z,520
2017-02-23T12:52:49.660Z,532
2017-02-23T12:53:59.948Z,556
2017-02-23T12:55:10.355Z,504
2017-02-23T12:56:21.034Z,384
2017-02-23T12:57:31.708Z,564
2017-02-23T12:58:42.389Z,580
2017-02-23T12:59:51.503Z,712
2017-02-23T13:01:02.277Z,456
2017-02-23T13:02:12.963Z,380
2017-02-23T13:03:23.274Z,420
2017-02-23T13:04:33.956Z,464
2017-02-23T13:05:44.264Z,372
2017-02-23T13:06:54.665Z,336
2017-02-23T13:08:04.977Z,516
2017-02-23T13:09:14.487Z,340
2017-02-23T13:10:24.842Z,336
2017-02-23T13:11:35.161Z,288
2017-02-23T13:12:45.940Z,300
2017-02-23T13:13:56.250Z,376
2017-02-23T13:15:06.546Z,448
2017-02-23T13:16:17.216Z,460
2017-02-23T13:17:27.893Z,548
2017-02-23T13:18:38.812Z,624
2017-02-23T13:19:48.705Z,472
2017-02-23T13:20:58.198Z,524
2017-02-23T13:22:08.489Z,468
2017-02-23T13:23:19.090Z,536
2017-02-23T13:24:29.083Z,564
2017-02-23T13:25:39.828Z,608
2017-02-23T13:26:50.528Z,472
2017-02-23T13:27:59.671Z,476
2017-02-23T13:29:10.363Z,416
2017-02-23T13:30:20.739Z,512
2017-02-23T13:31:31.070Z,500
2017-02-23T13:32:41.767Z,476
2017-02-23T13:33:52.064Z,392
2017-02-23T13:35:02.353Z,360
2017-02-23T13:36:12.796Z,336
2017-02-23T13:37:23.100Z,296
2017-02-23T13:38:32.591Z,312
2017-02-23T13:39:42.885Z,284
2017-02-23T13:40:52.772Z,288
2017-02-23T13:42:02.786Z,276
2017-02-23T13:43:13.491Z,300
2017-02-23T13:44:24.151Z,276
2017-02-23T13:45:34.450Z,284
2017-02-23T13:46:45.067Z,256
2017-02-23T13:47:55.835Z,296
2017-02-23T13:49:06.521Z,312
2017-02-23T13:50:17.199Z,424
2017-02-23T13:51:27.115Z,408
2017-02-23T13:52:37.829Z,316
2017-02-23T13:53:48.760Z,440
2017-02-23T13:54:59.075Z,764
2017-02-23T13:56:09.561Z,956
2017-02-23T13:57:19.457Z,584
2017-02-23T13:58:29.770Z,368
2017-02-23T13:59:40.608Z,340
2017-02-23T14:00:51.262Z,316
2017-02-23T14:02:01.548Z,588
2017-02-23T14:03:12.408Z,520
2017-02-23T14:04:22.712Z,636
2017-02-23T14:05:33.470Z,504
2017-02-23T14:06:43.010Z,524
2017-02-23T14:07:53.686Z,512
2017-02-23T14:09:04.357Z,272
2017-02-23T14:10:15.045Z,356
2017-02-23T14:11:25.035Z,384
2017-02-23T14:12:35.706Z,392
2017-02-23T14:13:45.993Z,368
2017-02-23T14:14:56.293Z,228
2017-02-23T14:16:06.977Z,272
2017-02-23T14:17:16.963Z,356
2017-02-23T14:18:27.637Z,316
2017-02-23T14:19:37.540Z,280
2017-02-23T14:20:47.435Z,332
2017-02-23T14:21:57.328Z,248
2017-02-23T14:23:07.720Z,264
2017-02-23T14:24:18.032Z,252
2017-02-23T14:25:28.317Z,208
2017-02-23T14:26:39.002Z,200
2017-02-23T14:27:48.893Z,216
2017-02-23T14:28:58.906Z,240
2017-02-23T14:30:08.798Z,260
2017-02-23T14:31:18.307Z,244
2017-02-23T14:32:29.017Z,224
2017-02-23T14:33:39.311Z,188
2017-02-23T14:34:49.697Z,224
2017-02-23T14:35:59.592Z,244
2017-02-23T14:37:10.287Z,204
2017-02-23T14:38:19.793Z,216
2017-02-23T14:39:30.477Z,272
2017-02-23T14:40:40.898Z,204
2017-02-23T14:41:51.266Z,196
2017-02-23T14:43:01.174Z,320
2017-02-23T14:44:11.462Z,308
2017-02-23T14:45:22.133Z,504
2017-02-23T14:46:32.917Z,888
2017-02-23T14:47:43.194Z,1020
2017-02-23T14:48:53.487Z,964
2017-02-23T14:50:03.779Z,976
2017-02-23T14:51:14.454Z,880
2017-02-23T14:52:24.085Z,772
2017-02-23T14:53:34.422Z,640
2017-02-23T14:54:45.139Z,628
2017-02-23T14:55:55.837Z,620
2017-02-23T14:57:05.738Z,576
2017-02-23T14:58:15.832Z,572
2017-02-23T14:59:26.135Z,564
2017-02-23T15:00:36.870Z,540
2017-02-23T15:01:47.538Z,532
2017-02-23T15:02:57.823Z,524
2017-02-23T15:04:08.686Z,560
2017-02-23T15:05:18.648Z,520
2017-02-23T15:06:29.318Z,556
2017-02-23T15:07:39.221Z,524
2017-02-23T15:08:48.386Z,488
2017-02-23T15:09:58.818Z,492
2017-02-23T15:11:09.529Z,512
2017-02-23T15:12:19.839Z,520
2017-02-23T15:13:30.147Z,540
2017-02-23T15:14:40.834Z,600
2017-02-23T15:15:51.628Z,608
2017-02-23T15:17:01.943Z,652
2017-02-23T15:18:12.260Z,656
2017-02-23T15:19:22.539Z,632
2017-02-23T15:20:33.213Z,612
2017-02-23T15:21:43.995Z,592
2017-02-23T15:22:54.330Z,568
2017-02-23T15:24:05.051Z,572
2017-02-23T15:25:15.737Z,580
2017-02-23T15:26:25.221Z,596
2017-02-23T15:27:35.623Z,600
2017-02-23T15:28:45.891Z,568
2017-02-23T15:29:56.592Z,548
2017-02-23T15:31:06.911Z,528
2017-02-23T15:32:17.219Z,500
2017-02-23T15:33:27.618Z,488
2017-02-23T15:34:37.507Z,480
2017-02-23T15:35:48.232Z,492
2017-02-23T15:36:58.134Z,496
2017-02-23T15:38:08.848Z,516
2017-02-23T15:39:19.670Z,536
2017-02-23T15:40:29.939Z,532
2017-02-23T15:41:40.215Z,552
2017-02-23T15:42:50.525Z,572
2017-02-23T15:44:01.464Z,600
2017-02-23T15:45:11.874Z,624
2017-02-23T15:46:22.176Z,596
2017-02-23T15:47:32.869Z,548
2017-02-23T15:48:42.789Z,512
2017-02-23T15:49:53.501Z,484
2017-02-23T15:51:04.288Z,504
2017-02-23T15:52:14.184Z,472
2017-02-23T15:53:24.851Z,456
2017-02-23T15:54:35.180Z,448
2017-02-23T15:55:45.849Z,448
2017-02-23T15:56:56.404Z,444
2017-02-23T15:58:07.358Z,428
2017-02-23T15:59:18.064Z,416
2017-02-23T16:00:27.960Z,412
2017-02-23T16:01:38.261Z,400
2017-02-23T16:02:48.285Z,388
2017-02-23T16:03:58.182Z,384
2017-02-23T16:05:08.868Z,392
2017-02-23T16:06:18.745Z,404
2017-02-23T16:07:28.636Z,392
2017-02-23T16:08:39.286Z,380
2017-02-23T16:09:49.183Z,380
2017-02-23T16:10:59.470Z,376
2017-02-23T16:12:09.375Z,368
2017-02-23T16:13:19.285Z,472
2017-02-23T16:14:28.937Z,400
2017-02-23T16:15:39.675Z,356
2017-02-23T16:16:50.003Z,332
2017-02-23T16:18:00.697Z,304
2017-02-23T16:19:10.622Z,300
2017-02-23T16:20:20.635Z,316
2017-02-23T16:21:30.932Z,296
2017-02-23T16:22:41.617Z,268
2017-02-23T16:23:51.520Z,300
2017-02-23T16:25:02.241Z,284
2017-02-23T16:26:12.242Z,248
2017-02-23T16:27:22.163Z,224
2017-02-23T16:28:32.852Z,204
2017-02-23T16:29:42.364Z,200
2017-02-23T16:30:52.660Z,164
2017-02-23T16:32:03.108Z,128
2017-02-23T16:33:13.028Z,232
2017-02-23T16:34:23.333Z,192
2017-02-23T16:35:34.010Z,132
2017-02-23T16:36:44.326Z,88
2017-02-23T16:37:55.272Z,48
2017-02-23T16:39:05.616Z,60
2017-02-23T16:40:15.519Z,52